Time;durP1;ratioP1;P1;durP2;ratioP2;P2;SDS_P1;SDS_P2;PMS_P1;PMS_P2;Temp;Humidity;BMP_temperature;BMP_pressure;BME280_temperature;BME280_humidity;BME280_pressure;Samples;Min_cycle;Max_cycle;Signal;HPM_P1;HPM_P2
2023/06/25 00:03:12;;;;;;;4.10;3.70;;;;;;;20.67;62.71;97463.13;10108335;29;20073;-51
2023/06/25 00:08:32;;;;;;;4.35;3.95;;;;;;;20.68;62.57;97461.19;10108134;29;20052;-50
2023/06/25 00:13:53;;;;;;;3.92;3.63;;;;;;;20.68;62.59;97455.78;10108013;29;20052;-51
2023/06/25 00:19:17;;;;;;;4.30;3.90;;;;;;;20.68;62.47;97447.66;10108014;29;20090;-51
2023/06/25 00:24:40;;;;;;;4.32;4.00;;;;;;;20.67;62.59;97446.09;10095664;29;20056;-51
2023/06/25 00:30:00;;;;;;;4.35;3.95;;;;;;;20.66;62.41;97447.19;10107911;29;20066;-51
2023/06/25 00:35:24;;;;;;;4.20;3.80;;;;;;;20.66;62.36;97442.59;10096792;29;20052;-52
2023/06/25 00:40:44;;;;;;;4.43;4.03;;;;;;;20.66;62.40;97434.47;10137142;29;20040;-51
2023/06/25 00:46:04;;;;;;;3.92;3.63;;;;;;;20.66;62.33;97434.47;10139144;29;20163;-51
2023/06/25 00:51:27;;;;;;;4.85;4.05;;;;;;;20.66;62.29;97430.94;10145081;29;20053;-50
2023/06/25 00:56:46;;;;;;;3.97;3.65;;;;;;;20.66;62.28;97422.81;10138863;29;20048;-51
2023/06/25 01:02:14;;;;;;;4.53;4.13;;;;;;;20.65;62.17;97422.03;10123481;29;20520;-52
2023/06/25 01:07:36;;;;;;;4.25;3.90;;;;;;;20.65;62.15;97418.53;10113602;29;20052;-51
2023/06/25 01:12:56;;;;;;;4.00;3.70;;;;;;;20.65;62.16;97419.31;10113503;29;20485;-48
2023/06/25 01:18:15;;;;;;;4.07;3.78;;;;;;;20.64;62.04;97408.78;10113373;29;20049;-52
2023/06/25 01:23:36;;;;;;;4.40;4.00;;;;;;;20.64;62.07;97417.75;10131040;29;20040;-51
2023/06/25 01:28:55;;;;;;;4.40;4.00;;;;;;;20.65;62.35;97410.41;10151864;29;20052;-50
2023/06/25 01:34:15;;;;;;;4.20;3.80;;;;;;;20.64;62.12;97408.78;10145156;29;20527;-50
2023/06/25 01:39:34;;;;;;;4.28;3.97;;;;;;;20.64;62.06;97411.50;10137172;29;20060;-50
2023/06/25 01:44:54;;;;;;;4.20;3.88;;;;;;;20.63;62.05;97407.22;10138137;29;20045;-51
2023/06/25 01:50:13;;;;;;;4.00;3.70;;;;;;;20.63;61.82;97399.09;10106808;29;20072;-51
2023/06/25 01:55:33;;;;;;;4.00;3.70;;;;;;;20.63;61.98;97393.69;10150084;29;20060;-51
2023/06/25 02:00:53;;;;;;;4.40;4.00;;;;;;;20.63;61.85;97386.34;10137846;29;20516;-51
2023/06/25 02:06:12;;;;;;;4.05;3.75;;;;;;;20.62;61.94;97382.06;10137952;29;20064;-51
2023/06/25 02:11:32;;;;;;;4.50;4.15;;;;;;;20.62;61.82;97379.34;10144709;29;20049;-51
2023/06/25 02:16:52;;;;;;;4.40;4.00;;;;;;;20.62;61.75;97383.94;10146907;29;20048;-51
2023/06/25 02:22:11;;;;;;;4.00;3.70;;;;;;;20.62;61.95;97381.25;10149686;29;20045;-51
2023/06/25 02:27:30;;;;;;;4.13;3.70;;;;;;;20.61;61.69;97385.88;10149664;29;20045;-52
2023/06/25 02:32:50;;;;;;;3.85;3.55;;;;;;;20.61;61.88;97382.38;10149296;29;20512;-51
2023/06/25 02:38:09;;;;;;;4.13;3.83;;;;;;;20.61;61.63;97382.38;10149258;29;20048;-51
2023/06/25 02:43:29;;;;;;;3.97;3.67;;;;;;;20.61;61.57;97377.75;10134946;29;20533;-51
2023/06/25 02:48:49;;;;;;;4.50;4.10;;;;;;;20.60;61.68;97373.47;10147440;29;20391;-52
2023/06/25 02:54:08;;;;;;;3.83;3.53;;;;;;;20.59;61.60;97371.84;10149318;29;20071;-51
2023/06/25 02:59:29;;;;;;;4.35;3.97;;;;;;;20.60;61.47;97370.75;10133616;29;20049;-50
2023/06/25 03:04:48;;;;;;;4.90;4.30;;;;;;;20.60;61.53;97373.47;10134113;29;20401;-51
2023/06/25 03:10:08;;;;;;;3.80;3.50;;;;;;;20.59;61.49;97363.75;10148227;29;20041;-51
2023/06/25 03:15:27;;;;;;;4.60;3.92;;;;;;;20.59;61.52;97365.63;10148030;29;20048;-51
2023/06/25 03:20:47;;;;;;;4.38;3.88;;;;;;;20.59;61.49;97365.63;10133444;29;20045;-50
2023/06/25 03:26:06;;;;;;;4.13;3.78;;;;;;;20.60;61.50;97364.53;10135332;29;20064;-50
2023/06/25 03:31:26;;;;;;;4.00;3.70;;;;;;;20.58;61.41;97359.41;10133474;29;20045;-50
2023/06/25 03:36:49;;;;;;;3.80;3.50;;;;;;;20.58;61.49;97350.47;10116508;29;20049;-51
2023/06/25 03:42:09;;;;;;;4.43;3.90;;;;;;;20.58;61.48;97356.72;10098731;29;20049;-51
2023/06/25 03:47:30;;;;;;;4.47;4.07;;;;;;;20.58;61.35;97359.41;10107603;29;20048;-50
2023/06/25 03:52:49;;;;;;;4.00;3.70;;;;;;;20.58;61.36;97355.91;10082025;29;20422;-50
2023/06/25 03:58:10;;;;;;;3.90;3.60;;;;;;;20.57;61.43;97351.63;10094391;29;20441;-51
2023/06/25 04:03:29;;;;;;;4.28;3.92;;;;;;;20.58;61.42;97348.59;10081738;29;20055;-51
2023/06/25 04:08:49;;;;;;;3.80;3.50;;;;;;;20.58;61.47;97347.78;10108180;29;20124;-51
2023/06/25 04:14:08;;;;;;;5.18;4.05;;;;;;;20.58;61.39;97350.47;10102496;29;20056;-52
2023/06/25 04:19:29;;;;;;;3.88;3.58;;;;;;;20.57;61.53;97352.41;10101602;29;20100;-51
2023/06/25 04:24:49;;;;;;;4.10;3.80;;;;;;;20.59;61.45;97347.50;10139483;29;20049;-51
2023/06/25 04:30:10;;;;;;;5.22;4.50;;;;;;;20.61;61.62;97342.56;10127357;29;20059;-53
2023/06/25 04:35:30;;;;;;;4.50;4.10;;;;;;;20.63;61.57;97340.34;10127202;29;20100;-50
2023/06/25 04:40:50;;;;;;;4.28;3.90;;;;;;;20.66;61.37;97352.44;10127063;29;20078;-50
2023/06/25 04:46:09;;;;;;;3.70;3.40;;;;;;;20.66;61.18;97355.94;10153392;29;20047;-51
2023/06/25 04:51:29;;;;;;;4.43;3.85;;;;;;;20.68;61.11;97347.50;10130844;29;20052;-51
2023/06/25 04:56:48;;;;;;;4.05;3.75;;;;;;;20.67;61.22;97357.53;10152964;29;20525;-51
2023/06/25 05:02:08;;;;;;;3.97;3.67;;;;;;;20.69;61.12;97357.22;10152841;29;20044;-52
2023/06/25 05:07:27;;;;;;;3.85;3.55;;;;;;;20.69;61.10;97354.50;10152615;29;20516;-50
2023/06/25 05:12:47;;;;;;;4.05;3.60;;;;;;;20.69;61.27;97346.38;10152440;29;20063;-51
2023/06/25 05:18:08;;;;;;;3.92;3.63;;;;;;;20.70;61.21;97356.13;10125793;29;20060;-51
2023/06/25 05:23:27;;;;;;;3.90;3.60;;;;;;;20.70;61.26;97359.63;10150995;29;20511;-51
2023/06/25 05:28:47;;;;;;;3.72;3.42;;;;;;;20.70;61.34;97358.81;10139541;29;20055;-50
2023/06/25 05:34:06;;;;;;;3.95;3.65;;;;;;;20.69;61.25;97355.28;10139333;29;20175;-51
2023/06/25 05:39:28;;;;;;;4.00;3.70;;;;;;;20.70;61.29;97348.00;10151519;29;20526;-51
2023/06/25 05:44:48;;;;;;;4.38;3.97;;;;;;;20.70;61.38;97348.78;10151225;29;20049;-50
2023/06/25 05:50:08;;;;;;;3.90;3.60;;;;;;;20.71;61.51;97350.34;10138395;29;20060;-51
2023/06/25 05:55:27;;;;;;;3.95;3.65;;;;;;;20.70;61.51;97351.50;10150918;29;20409;-50
2023/06/25 06:00:46;;;;;;;3.90;3.50;;;;;;;20.72;61.42;97353.88;10150859;29;20489;-51
2023/06/25 06:06:06;;;;;;;4.22;3.83;;;;;;;20.69;61.72;97357.22;10150434;29;20053;-52
2023/06/25 06:11:27;;;;;;;4.13;3.83;;;;;;;20.70;61.64;97361.53;10150172;29;20044;-50
2023/06/25 06:16:46;;;;;;;4.07;3.72;;;;;;;20.70;61.70;97354.19;10150042;29;20048;-51
2023/06/25 06:22:06;;;;;;;3.83;3.53;;;;;;;20.69;61.81;97355.28;10149796;29;20045;-51
2023/06/25 06:27:26;;;;;;;4.05;3.75;;;;;;;20.71;61.77;97363.91;10135388;29;20416;-51
2023/06/25 06:32:45;;;;;;;3.63;3.33;;;;;;;20.71;61.79;97360.41;10136840;29;20060;-51
2023/06/25 06:38:04;;;;;;;3.90;3.60;;;;;;;20.71;61.98;97358.47;10149248;29;20053;-50
2023/06/25 06:43:24;;;;;;;4.00;3.70;;;;;;;20.72;62.01;97362.00;10149122;29;20053;-51
2023/06/25 06:48:43;;;;;;;3.95;3.65;;;;;;;20.72;61.99;97372.84;10147788;29;20493;-51
2023/06/25 06:54:06;;;;;;;4.40;4.10;;;;;;;20.72;61.94;97364.72;10148762;29;20052;-50
2023/06/25 06:59:26;;;;;;;3.85;3.55;;;;;;;20.73;62.00;97369.00;10148574;29;20081;-51
2023/06/25 07:04:45;;;;;;;4.45;4.05;;;;;;;20.73;61.90;97363.59;10135844;29;20063;-50
2023/06/25 07:10:05;;;;;;;4.18;3.83;;;;;;;20.72;62.11;97368.22;10148240;29;20409;-53
2023/06/25 07:15:25;;;;;;;4.10;3.80;;;;;;;20.73;61.93;97358.16;10148215;29;20448;-50
2023/06/25 07:20:44;;;;;;;4.80;4.35;;;;;;;20.73;61.66;97352.75;10147707;29;20100;-51
2023/06/25 07:26:03;;;;;;;3.92;3.63;;;;;;;20.73;61.77;97353.53;10135290;29;20079;-51
2023/06/25 07:31:23;;;;;;;4.00;3.70;;;;;;;20.72;61.66;97351.97;10147820;29;20099;-50
2023/06/25 07:36:42;;;;;;;4.07;3.67;;;;;;;20.72;61.82;97341.13;10147560;29;20044;-50
2023/06/25 07:42:02;;;;;;;4.05;3.75;;;;;;;20.73;61.85;97340.00;10135067;29;20060;-50
2023/06/25 07:47:21;;;;;;;4.30;3.90;;;;;;;20.73;61.73;97341.94;10152773;29;20144;-52
2023/06/25 07:52:41;;;;;;;4.50;4.10;;;;;;;20.73;61.80;97341.94;10130072;29;20183;-51
2023/06/25 07:58:00;;;;;;;4.50;4.10;;;;;;;20.72;61.15;97334.94;10155223;29;20450;-51
2023/06/25 08:03:21;;;;;;;4.07;3.75;;;;;;;20.71;61.48;97334.13;10154792;29;20076;-52
2023/06/25 08:08:41;;;;;;;4.05;3.75;;;;;;;20.72;61.42;97334.94;10154765;29;20045;-51
2023/06/25 08:14:00;;;;;;;4.32;3.92;;;;;;;20.72;61.51;97335.72;10154590;29;20048;-51
2023/06/25 08:19:19;;;;;;;4.13;3.83;;;;;;;20.72;61.43;97324.09;10154440;29;20055;-51
2023/06/25 08:24:39;;;;;;;4.15;3.75;;;;;;;20.72;61.27;97324.91;10154028;29;20045;-51
2023/06/25 08:29:58;;;;;;;4.70;4.30;;;;;;;20.72;61.29;97327.59;10154039;29;20418;-51
2023/06/25 08:35:17;;;;;;;4.50;4.10;;;;;;;20.73;61.22;97323.75;10153719;29;20100;-51
2023/06/25 08:40:40;;;;;;;4.30;3.90;;;;;;;20.73;60.88;97315.63;10153528;29;20060;-50
2023/06/25 08:46:01;;;;;;;4.30;3.90;;;;;;;20.73;60.25;97318.34;10153401;29;20047;-51
2023/06/25 08:51:24;;;;;;;4.70;4.30;;;;;;;20.74;60.05;97319.94;10145608;29;20461;-51
2023/06/25 08:56:44;;;;;;;4.10;3.65;;;;;;;20.73;59.64;97318.34;10153195;29;20044;-50
2023/06/25 09:02:03;;;;;;;4.15;3.72;;;;;;;20.74;59.42;97317.25;10153040;29;20051;-50
2023/06/25 09:07:23;;;;;;;4.50;3.90;;;;;;;20.75;59.18;97318.03;10140363;29;20112;-50
2023/06/25 09:12:48;;;;;;;4.40;4.00;;;;;;;20.76;58.87;97313.41;10152689;29;20100;-51
2023/06/25 09:18:07;;;;;;;4.38;3.97;;;;;;;20.75;58.78;97307.19;10144891;29;20052;-49
2023/06/25 09:23:27;;;;;;;4.03;3.72;;;;;;;20.74;58.87;97306.41;10152120;29;20041;-50
2023/06/25 09:28:49;;;;;;;4.18;3.80;;;;;;;20.75;59.15;97301.78;10139162;29;20076;-51
2023/06/25 09:34:09;;;;;;;4.32;3.92;;;;;;;20.76;59.41;97303.41;10125329;29;20057;-51
2023/06/25 09:39:29;;;;;;;4.28;3.97;;;;;;;20.75;59.73;97296.38;10151610;29;20100;-51
2023/06/25 09:44:50;;;;;;;4.05;3.75;;;;;;;20.76;59.76;97283.63;10151364;29;20051;-52
2023/06/25 09:50:21;;;;;;;4.30;3.90;;;;;;;20.77;59.75;97293.34;10146557;29;20390;-49
2023/06/25 09:55:41;;;;;;;4.38;3.97;;;;;;;20.74;59.83;97287.47;10150846;29;20048;-50
2023/06/25 10:01:00;;;;;;;4.20;3.80;;;;;;;20.76;59.93;97286.34;10138301;29;20065;-51
2023/06/25 10:06:20;;;;;;;4.88;4.38;;;;;;;20.74;59.81;97282.03;10150327;29;20041;-51
2023/06/25 10:11:50;;;;;;;4.68;4.28;;;;;;;20.76;60.24;97283.63;10149882;29;20056;-52
2023/06/25 10:17:09;;;;;;;4.63;4.22;;;;;;;20.76;60.35;97273.63;10149939;29;20048;-52
2023/06/25 10:22:33;;;;;;;5.45;4.43;;;;;;;20.77;60.59;97274.41;10149793;29;20501;-51
2023/06/25 10:28:01;;;;;;;5.63;4.57;;;;;;;20.76;60.90;97257.38;10150307;29;20045;-51
2023/06/25 10:33:21;;;;;;;;;;;;;;;20.78;61.20;97259.72;10149994;29;20041;-52
2023/06/25 10:38:41;;;;;;;4.65;4.25;;;;;;;20.78;61.27;97263.25;10149426;29;19923;-51
2023/06/25 10:44:01;;;;;;;5.75;4.28;;;;;;;20.78;61.34;97257.03;10149790;29;20067;-51
2023/06/25 10:49:20;;;;;;;4.78;4.38;;;;;;;20.78;61.31;97260.53;10146290;29;20519;-51
2023/06/25 10:54:40;;;;;;;4.50;4.10;;;;;;;20.80;61.42;97260.22;10148903;29;20048;-51
2023/06/25 11:00:00;;;;;;;4.75;4.32;;;;;;;20.78;61.45;97251.59;10148660;29;20056;-51
2023/06/25 11:05:21;;;;;;;4.75;4.35;;;;;;;20.80;61.57;97252.91;10148418;29;20051;-52
2023/06/25 11:10:41;;;;;;;4.45;3.80;;;;;;;20.79;61.59;97242.38;10148279;29;20048;-51
2023/06/25 11:16:01;;;;;;;4.88;4.15;;;;;;;20.79;61.52;97247.78;10148158;29;20441;-51
2023/06/25 11:21:20;;;;;;;4.07;3.67;;;;;;;20.80;61.52;97246.69;10146916;29;20044;-51
2023/06/25 11:26:43;;;;;;;4.60;4.10;;;;;;;20.81;61.63;97234.72;10147849;29;20051;-51
2023/06/25 11:32:08;;;;;;;4.28;3.92;;;;;;;20.81;61.49;97232.03;10147726;29;20052;-50
2023/06/25 11:37:28;;;;;;;4.82;3.97;;;;;;;20.80;61.50;97225.03;10147528;29;20055;-51
2023/06/25 11:42:47;;;;;;;4.35;3.95;;;;;;;20.80;61.55;97223.13;10134971;29;20056;-52
2023/06/25 11:48:12;;;;;;;4.07;3.67;;;;;;;20.80;61.64;97222.31;10147378;29;20097;-52
2023/06/25 11:53:33;;;;;;;4.72;4.18;;;;;;;20.82;61.53;97214.66;10147476;29;20045;-51
2023/06/25 11:58:52;;;;;;;4.45;3.90;;;;;;;20.81;61.66;97210.34;10147230;29;20049;-52
2023/06/25 12:04:12;;;;;;;4.22;3.88;;;;;;;20.80;61.63;97206.88;10147119;29;20056;-51
2023/06/25 12:09:31;;;;;;;4.35;3.95;;;;;;;20.81;61.58;97207.66;10146919;29;20040;-51
2023/06/25 12:14:51;;;;;;;4.85;3.80;;;;;;;20.81;61.68;97203.03;10146955;29;20048;-51
2023/06/25 12:20:11;;;;;;;4.30;3.90;;;;;;;20.82;61.55;97193.00;10146690;29;20104;-51
2023/06/25 12:25:30;;;;;;;4.20;3.90;;;;;;;20.81;61.61;97186.78;10134284;29;20064;-51
2023/06/25 12:30:50;;;;;;;4.20;3.90;;;;;;;20.81;61.74;97191.41;10147824;29;20048;-51
2023/06/25 12:36:12;;;;;;;4.25;3.75;;;;;;;20.82;61.60;97182.19;10153850;29;20056;-51
2023/06/25 12:41:31;;;;;;;4.05;3.60;;;;;;;20.81;61.72;97181.38;10153768;29;20045;-51
2023/06/25 12:46:51;;;;;;;3.90;3.53;;;;;;;20.82;61.47;97182.19;10154154;29;20051;-51
2023/06/25 12:52:11;;;;;;;4.15;3.75;;;;;;;20.84;61.65;97174.53;10143503;29;20056;-51
2023/06/25 12:57:30;;;;;;;4.28;3.92;;;;;;;20.83;61.62;97171.00;10153052;29;20507;-53
2023/06/25 13:02:50;;;;;;;3.90;3.60;;;;;;;20.84;61.60;97164.47;10140537;29;20139;-51
2023/06/25 13:08:10;;;;;;;4.00;3.70;;;;;;;20.83;61.58;97159.38;10140248;29;20117;-51
2023/06/25 13:13:30;;;;;;;3.75;3.45;;;;;;;20.84;61.71;97147.44;10152373;29;20055;-51
2023/06/25 13:18:49;;;;;;;4.07;3.78;;;;;;;20.84;61.53;97147.44;10152433;29;20519;-51
2023/06/25 13:24:09;;;;;;;3.50;3.20;;;;;;;20.85;61.63;97144.41;10152065;29;20105;-51
2023/06/25 13:29:31;;;;;;;4.10;3.70;;;;;;;20.86;61.65;97147.91;10151898;29;20065;-52
2023/06/25 13:34:51;;;;;;;3.90;3.60;;;;;;;20.86;61.79;97140.59;10152353;29;20049;-51
2023/06/25 13:40:11;;;;;;;3.80;3.50;;;;;;;20.87;61.82;97135.94;10151669;29;20568;-52
2023/06/25 13:45:30;;;;;;;3.72;3.42;;;;;;;20.87;61.76;97125.91;10150579;29;20405;-51
2023/06/25 13:50:50;;;;;;;3.33;3.05;;;;;;;20.90;61.98;97132.59;10144960;29;20512;-52
2023/06/25 13:56:10;;;;;;;3.88;3.55;;;;;;;20.91;62.04;97120.63;10150914;29;20049;-51
2023/06/25 14:01:29;;;;;;;4.93;3.53;;;;;;;20.91;61.94;97128.75;10150795;29;20104;-51
2023/06/25 14:06:50;;;;;;;5.00;3.85;;;;;;;20.91;62.14;97126.88;10150510;29;20574;-52
2023/06/25 14:12:09;;;;;;;4.63;3.83;;;;;;;20.91;62.10;97115.22;10150380;29;20052;-52
2023/06/25 14:17:28;;;;;;;3.75;3.45;;;;;;;20.92;61.98;97111.41;10150172;29;20154;-51
2023/06/25 14:22:48;;;;;;;3.60;3.30;;;;;;;20.94;62.15;97109.97;10149793;29;20048;-51
2023/06/25 14:28:07;;;;;;;3.90;3.50;;;;;;;20.94;62.26;97109.97;10149696;29;20080;-51
2023/06/25 14:33:30;;;;;;;3.55;3.25;;;;;;;20.94;62.26;97103.75;10149560;29;20052;-51
2023/06/25 14:38:49;;;;;;;3.67;3.38;;;;;;;20.93;62.21;97102.16;10149277;29;20464;-51
2023/06/25 14:44:09;;;;;;;4.07;3.33;;;;;;;20.94;62.28;97092.91;10149315;29;20041;-50
2023/06/25 14:49:28;;;;;;;3.80;3.50;;;;;;;20.95;62.40;97097.19;10136327;29;20111;-51
2023/06/25 14:54:47;;;;;;;3.70;3.40;;;;;;;20.97;62.29;97100.38;10134492;29;20044;-52
2023/06/25 15:00:07;;;;;;;4.25;3.85;;;;;;;20.97;62.50;97094.16;10148679;29;20048;-51
2023/06/25 15:05:27;;;;;;;4.05;3.55;;;;;;;20.96;62.51;97096.09;10148434;29;20051;-52
2023/06/25 15:10:46;;;;;;;3.67;3.38;;;;;;;20.96;62.49;97085.25;10148266;29;20485;-52
2023/06/25 15:16:06;;;;;;;3.70;3.40;;;;;;;20.98;62.48;97079.53;10148178;29;20059;-51
2023/06/25 15:21:25;;;;;;;3.65;3.00;;;;;;;20.98;62.52;97085.72;10147918;29;20417;-52
2023/06/25 15:26:46;;;;;;;3.35;3.05;;;;;;;20.98;62.34;97076.81;10147896;29;20469;-52
2023/06/25 15:32:06;;;;;;;3.60;3.30;;;;;;;20.97;62.37;97078.72;10139999;29;20045;-52
2023/06/25 15:37:26;;;;;;;3.50;3.20;;;;;;;20.97;62.44;97076.00;10147615;29;20056;-52
2023/06/25 15:42:45;;;;;;;3.40;3.10;;;;;;;20.96;62.46;97063.59;10147584;29;20045;-52
2023/06/25 15:48:05;;;;;;;3.60;3.30;;;;;;;20.98;62.29;97063.28;10147463;29;20493;-51
2023/06/25 15:53:25;;;;;;;3.60;3.30;;;;;;;20.99;62.48;97049.38;10134297;29;20109;-52
2023/06/25 15:58:45;;;;;;;3.47;3.17;;;;;;;20.99;62.61;97045.88;10147323;29;20049;-50
2023/06/25 16:04:05;;;;;;;3.33;3.13;;;;;;;21.00;62.57;97044.78;10147180;29;20498;-51
2023/06/25 16:09:24;;;;;;;3.50;3.20;;;;;;;21.00;62.39;97037.44;10148381;29;20045;-51
2023/06/25 16:14:44;;;;;;;3.63;3.33;;;;;;;21.01;62.53;97033.63;10154735;29;20048;-51
2023/06/25 16:20:04;;;;;;;3.40;3.10;;;;;;;21.00;62.61;97034.72;10142004;29;20053;-51
2023/06/25 16:25:24;;;;;;;3.50;3.20;;;;;;;21.01;62.59;97033.63;10142008;29;20068;-52
2023/06/25 16:30:43;;;;;;;3.40;3.10;;;;;;;21.00;62.54;97029.31;10154165;29;20051;-52
2023/06/25 16:36:03;;;;;;;3.58;3.28;;;;;;;21.00;62.35;97023.91;10153989;29;20079;-52
2023/06/25 16:41:22;;;;;;;3.40;3.10;;;;;;;21.00;62.41;97031.25;10153819;29;20045;-52
2023/06/25 16:46:41;;;;;;;3.15;2.95;;;;;;;21.00;62.41;97026.59;10141150;29;20057;-52
2023/06/25 16:52:02;;;;;;;3.55;3.25;;;;;;;21.00;62.42;97023.91;10144018;29;20049;-51
2023/06/25 16:57:21;;;;;;;3.58;3.28;;;;;;;21.00;62.44;97026.59;10140798;29;20060;-52
2023/06/25 17:02:43;;;;;;;3.33;3.03;;;;;;;21.00;62.34;97031.25;10140554;29;20056;-52
2023/06/25 17:08:02;;;;;;;3.28;3.00;;;;;;;21.00;62.46;97028.53;10152808;29;20052;-52
2023/06/25 17:13:22;;;;;;;3.08;2.88;;;;;;;21.00;62.46;97032.03;10152684;29;20048;-52
2023/06/25 17:18:41;;;;;;;3.53;3.22;;;;;;;21.01;62.35;97019.28;10151169;29;20049;-52
2023/06/25 17:24:00;;;;;;;3.50;3.15;;;;;;;21.00;62.21;97026.59;10152086;29;20100;-51
2023/06/25 17:29:20;;;;;;;4.00;3.30;;;;;;;21.01;62.18;97027.41;10152002;29;20045;-51
2023/06/25 17:34:39;;;;;;;3.03;2.83;;;;;;;21.01;62.50;97020.09;10151957;29;20044;-52
2023/06/25 17:39:59;;;;;;;3.08;2.88;;;;;;;21.03;62.32;97025.97;10151776;29;20411;-52
2023/06/25 17:45:18;;;;;;;3.88;3.10;;;;;;;21.03;62.46;97015.13;10151475;29;20047;-52
2023/06/25 17:50:38;;;;;;;2.75;2.55;;;;;;;21.02;62.46;97018.94;10145397;29;20067;-52
2023/06/25 17:55:58;;;;;;;2.78;2.58;;;;;;;21.03;62.33;97015.13;10138597;29;20060;-52
2023/06/25 18:01:18;;;;;;;3.28;2.97;;;;;;;21.02;62.27;97024.38;10150894;29;20041;-52
2023/06/25 18:06:38;;;;;;;3.15;2.92;;;;;;;21.02;62.32;97018.94;10150587;29;20497;-52
2023/06/25 18:11:57;;;;;;;2.80;2.60;;;;;;;21.02;62.20;97023.56;10150407;29;20047;-52
2023/06/25 18:17:17;;;;;;;3.03;2.83;;;;;;;21.02;62.33;97027.06;10150306;29;20052;-52
2023/06/25 18:22:40;;;;;;;3.30;3.00;;;;;;;21.02;62.29;97029.00;10149986;29;20051;-51
2023/06/25 18:27:59;;;;;;;3.13;2.92;;;;;;;21.01;62.20;97033.63;10149414;29;20544;-52
2023/06/25 18:33:19;;;;;;;3.17;2.95;;;;;;;21.02;62.33;97027.06;10149830;29;20044;-53
2023/06/25 18:38:39;;;;;;;2.97;2.67;;;;;;;21.01;62.28;97030.91;10149487;29;20056;-52
2023/06/25 18:43:58;;;;;;;3.17;2.88;;;;;;;21.01;62.16;97030.09;10149296;29;20128;-51
2023/06/25 18:49:22;;;;;;;3.22;3.03;;;;;;;21.01;62.17;97036.34;10136322;29;20109;-52
2023/06/25 18:54:41;;;;;;;3.15;2.95;;;;;;;21.00;62.13;97032.03;10136426;29;20063;-51
2023/06/25 19:00:02;;;;;;;3.30;3.00;;;;;;;21.01;62.27;97028.22;10148759;29;20128;-51
2023/06/25 19:05:22;;;;;;;3.20;2.90;;;;;;;21.01;62.14;97024.69;10148672;29;20398;-51
2023/06/25 19:10:43;;;;;;;2.85;2.65;;;;;;;21.01;62.15;97033.63;10148395;29;20489;-51
2023/06/25 19:16:04;;;;;;;3.17;2.88;;;;;;;21.01;62.08;97027.41;10135173;29;20091;-51
2023/06/25 19:21:24;;;;;;;3.00;2.80;;;;;;;21.01;62.00;97025.50;10147915;29;20568;-52
2023/06/25 19:26:45;;;;;;;2.88;2.67;;;;;;;21.00;62.30;97028.53;10135326;29;20060;-52
2023/06/25 19:32:05;;;;;;;3.20;3.00;;;;;;;21.01;62.04;97032.81;10147932;29;20044;-52
2023/06/25 19:37:25;;;;;;;3.20;2.92;;;;;;;20.99;62.09;97033.13;10147731;29;20569;-51
2023/06/25 19:42:45;;;;;;;3.25;2.95;;;;;;;21.00;62.16;97040.16;10146894;29;20045;-51
2023/06/25 19:48:05;;;;;;;2.88;2.67;;;;;;;20.98;62.07;97039.69;10127237;29;20087;-52
2023/06/25 19:53:25;;;;;;;3.10;2.90;;;;;;;20.99;62.04;97056.72;10120121;29;20060;-51
2023/06/25 19:58:44;;;;;;;2.78;2.58;;;;;;;20.99;61.94;97049.38;10134885;29;20059;-52
2023/06/25 20:04:04;;;;;;;3.75;2.90;;;;;;;20.99;62.04;97045.88;10147316;29;20130;-51
2023/06/25 20:09:23;;;;;;;3.22;3.03;;;;;;;20.99;62.03;97049.38;10134579;29;20063;-51
2023/06/25 20:14:43;;;;;;;3.20;2.90;;;;;;;20.98;62.11;97053.22;10147152;29;20052;-52
2023/06/25 20:20:04;;;;;;;2.70;2.50;;;;;;;20.99;62.03;97054.00;10134371;29;20068;-52
2023/06/25 20:25:24;;;;;;;2.90;2.60;;;;;;;20.99;62.03;97054.00;10132692;29;20052;-51
2023/06/25 20:30:43;;;;;;;2.75;2.55;;;;;;;20.98;62.03;97055.94;10146763;29;20040;-51
2023/06/25 20:36:03;;;;;;;3.05;2.85;;;;;;;20.98;61.99;97055.16;10146682;29;20120;-51
2023/06/25 20:41:22;;;;;;;3.03;2.78;;;;;;;21.00;62.05;97061.03;10146648;29;20497;-52
2023/06/25 20:46:42;;;;;;;3.03;2.72;;;;;;;20.98;61.93;97047.81;10146331;29;20048;-51
2023/06/25 20:52:01;;;;;;;2.80;2.60;;;;;;;20.99;62.04;97054.78;10138247;29;20068;-51
2023/06/25 20:57:21;;;;;;;2.85;2.65;;;;;;;20.98;62.01;97055.94;10153359;29;20049;-52
2023/06/25 21:02:40;;;;;;;2.85;2.65;;;;;;;20.98;61.83;97055.16;10153043;29;20053;-52
2023/06/25 21:07:59;;;;;;;2.97;2.78;;;;;;;20.98;61.97;97060.56;10152878;29;20096;-51
2023/06/25 21:13:19;;;;;;;2.72;2.53;;;;;;;20.98;61.83;97047.03;10152623;29;20045;-51
2023/06/25 21:18:39;;;;;;;2.70;2.50;;;;;;;20.98;61.92;97052.44;10152482;29;20045;-52
2023/06/25 21:23:58;;;;;;;2.70;2.50;;;;;;;20.98;61.80;97060.56;10151940;29;20068;-52
2023/06/25 21:29:18;;;;;;;3.00;2.80;;;;;;;20.97;61.81;97059.75;10152127;29;20052;-52
2023/06/25 21:34:37;;;;;;;2.78;2.58;;;;;;;20.97;61.80;97053.56;10151959;29;20101;-51
2023/06/25 21:39:56;;;;;;;2.80;2.60;;;;;;;20.97;61.92;97058.97;10151783;29;20056;-51
2023/06/25 21:45:16;;;;;;;2.80;2.60;;;;;;;20.96;61.87;97060.88;10151603;29;20044;-51
2023/06/25 21:50:35;;;;;;;2.80;2.60;;;;;;;20.97;61.83;97059.75;10145576;29;20081;-51
2023/06/25 21:55:55;;;;;;;3.00;2.72;;;;;;;20.96;61.78;97058.19;10151166;29;20119;-51
2023/06/25 22:01:14;;;;;;;2.78;2.58;;;;;;;20.96;61.84;97058.19;10151012;29;20462;-51
2023/06/25 22:06:34;;;;;;;2.60;2.40;;;;;;;20.96;61.81;97054.69;10150078;29;20044;-52
2023/06/25 22:11:55;;;;;;;2.50;2.30;;;;;;;20.96;61.70;97047.34;10150589;29;20044;-51
2023/06/25 22:17:15;;;;;;;2.70;2.50;;;;;;;20.94;61.70;97053.09;10138039;29;20052;-52
2023/06/25 22:22:34;;;;;;;2.75;2.55;;;;;;;20.96;61.71;97051.97;10149935;29;20461;-52
2023/06/25 22:27:57;;;;;;;2.75;2.55;;;;;;;20.94;61.64;97050.38;10149905;29;20161;-52
2023/06/25 22:33:16;;;;;;;2.88;2.67;;;;;;;20.94;61.61;97046.88;10137295;29;20056;-52
2023/06/25 22:38:35;;;;;;;2.60;2.40;;;;;;;20.94;61.65;97047.66;10149501;29;20461;-51
2023/06/25 22:43:55;;;;;;;2.75;2.35;;;;;;;20.94;61.70;97055.00;10136945;29;20060;-51
2023/06/25 22:49:14;;;;;;;2.75;2.55;;;;;;;20.94;61.73;97039.53;10146974;29;20089;-52
2023/06/25 22:54:33;;;;;;;2.85;2.65;;;;;;;20.94;61.65;97044.16;10148880;29;20048;-52
2023/06/25 22:59:53;;;;;;;2.78;2.58;;;;;;;20.93;61.55;97034.44;10148756;29;20412;-52
2023/06/25 23:05:12;;;;;;;2.70;2.50;;;;;;;20.93;61.70;97031.75;10148612;29;20405;-51
2023/06/25 23:10:32;;;;;;;2.97;2.78;;;;;;;20.93;61.60;97029.03;10148328;29;20478;-52
2023/06/25 23:15:52;;;;;;;2.83;2.63;;;;;;;20.94;61.51;97027.91;10148153;29;20041;-52
2023/06/25 23:21:11;;;;;;;2.80;2.60;;;;;;;20.93;61.61;97015.50;10147877;29;20044;-52
2023/06/25 23:26:31;;;;;;;2.45;2.30;;;;;;;20.92;61.72;97014.69;10147838;29;20437;-52
2023/06/25 23:31:50;;;;;;;2.55;2.35;;;;;;;20.93;61.67;97013.59;10147834;29;20104;-52
2023/06/25 23:37:09;;;;;;;2.78;2.50;;;;;;;20.93;61.59;97012.78;10147633;29;20080;-50
2023/06/25 23:42:29;;;;;;;2.58;2.38;;;;;;;20.92;61.50;97012.00;10147493;29;20045;-52
2023/06/25 23:47:48;;;;;;;2.70;2.50;;;;;;;20.93;61.52;97010.06;10133058;29;20048;-51
2023/06/25 23:53:07;;;;;;;2.70;2.50;;;;;;;20.91;61.48;97005.00;10135071;29;20494;-51
2023/06/25 23:58:27;;;;;;;2.95;2.40;;;;;;;20.92;61.43;97001.16;10147362;29;20386;-50
